createdAt,value
2016-10-26T16:25:56.075Z,928.68
2016-10-26T16:27:06.402Z,928.71
2016-10-26T16:29:56.200Z,928.63
2016-10-26T16:31:06.530Z,928.62
2016-10-26T16:32:16.876Z,928.61
2016-10-26T16:33:27.204Z,928.66
2016-10-26T16:34:37.534Z,928.67
2016-10-26T16:35:47.862Z,928.68
2016-10-26T16:36:58.292Z,928.72
2016-10-26T16:38:23.217Z,928.64
2016-10-26T16:39:34.019Z,928.62
2016-10-26T16:42:09.362Z,928.63
2016-10-26T16:43:19.690Z,928.58
2016-10-26T16:44:30.019Z,928.61
2016-10-26T16:45:40.348Z,928.58
2016-10-26T16:46:50.679Z,928.55
2016-10-26T16:48:01.152Z,928.57
2016-10-26T16:49:11.477Z,928.52
2016-10-26T16:50:21.810Z,928.5
2016-10-26T16:51:32.140Z,928.49
2016-10-26T16:52:42.476Z,928.44
2016-10-26T16:53:52.841Z,928.42
2016-10-26T16:55:03.179Z,928.37
2016-10-26T16:56:14.371Z,928.38
2016-10-26T16:57:24.733Z,928.33
2016-10-26T16:58:35.197Z,928.33
2016-10-26T16:59:45.623Z,928.36
2016-10-26T17:00:56.531Z,928.31
2016-10-26T17:02:06.954Z,928.28
2016-10-26T17:03:17.390Z,928.27
2016-10-26T17:04:27.843Z,928.26
2016-10-26T17:05:38.793Z,928.25
2016-10-26T17:06:49.219Z,928.2
2016-10-26T17:07:59.646Z,928.14
2016-10-26T17:09:10.075Z,928.17
2016-10-26T17:10:20.499Z,928.15
2016-10-26T17:11:31.023Z,928.14
2016-10-26T17:12:41.448Z,928.12
2016-10-26T17:13:52.390Z,928.13
2016-10-26T17:15:02.932Z,928.06
2016-10-26T17:16:13.477Z,928.07
2016-10-26T17:17:24.118Z,928.03
2016-10-26T17:18:34.658Z,927.97
2016-10-26T17:19:45.204Z,927.94
2016-10-26T17:20:55.746Z,927.92
2016-10-26T17:22:06.284Z,927.9
2016-10-26T17:23:16.828Z,927.89
2016-10-26T17:24:27.368Z,927.9
2016-10-26T17:27:03.480Z,927.81
2016-10-26T17:28:14.055Z,927.79
2016-10-26T17:29:24.614Z,927.76
2016-10-26T17:30:35.193Z,927.73
2016-10-26T17:31:45.742Z,927.74
2016-10-26T17:33:10.849Z,927.7
2016-10-26T17:34:35.915Z,927.72
2016-10-26T17:36:00.986Z,927.73
2016-10-26T17:37:11.534Z,927.73
2016-10-26T17:38:22.082Z,927.74
2016-10-26T17:39:32.726Z,927.76
2016-10-26T17:40:43.272Z,927.7
2016-10-26T17:41:53.812Z,927.73
2016-10-26T17:43:04.356Z,927.73
2016-10-26T17:44:14.946Z,927.72
2016-10-26T17:45:25.518Z,927.78
2016-10-26T17:46:36.059Z,927.7
2016-10-26T17:48:01.128Z,927.69
2016-10-26T17:49:11.716Z,927.71
2016-10-26T17:50:22.440Z,927.67
2016-10-26T17:51:32.984Z,927.69
2016-10-26T17:52:43.524Z,927.62
2016-10-26T17:53:54.067Z,927.54
2016-10-26T17:55:04.719Z,927.54
2016-10-26T17:56:15.783Z,927.54
2016-10-26T17:57:40.853Z,927.55
2016-10-26T17:58:51.395Z,927.57
2016-10-26T18:00:01.942Z,927.61
2016-10-26T18:01:12.590Z,927.53
2016-10-26T18:02:23.130Z,927.57
2016-10-26T18:03:33.674Z,927.57
2016-10-26T18:04:44.714Z,927.51
2016-10-26T18:05:55.357Z,927.52
2016-10-26T18:07:05.904Z,927.52
2016-10-26T18:08:16.443Z,927.57
2016-10-26T18:09:26.986Z,927.53
2016-10-26T18:10:37.527Z,927.5
2016-10-26T18:11:48.167Z,927.52
2016-10-26T18:12:58.751Z,927.47
2016-10-26T18:14:09.794Z,927.57
2016-10-26T18:15:20.340Z,927.52
2016-10-26T18:16:30.880Z,927.47
2016-10-26T18:17:41.423Z,927.57
2016-10-26T18:18:51.963Z,927.51
2016-10-26T18:20:02.495Z,927.53
2016-10-26T18:21:12.922Z,927.5
2016-10-26T18:22:23.349Z,927.49
2016-10-26T18:23:48.321Z,927.5
2016-10-26T18:24:58.743Z,927.49
2016-10-26T18:26:09.367Z,927.45
2016-10-26T18:27:19.775Z,927.38
2016-10-26T18:28:30.205Z,927.41
2016-10-26T18:29:40.539Z,927.37
2016-10-26T18:30:50.874Z,927.38
2016-10-26T18:32:01.205Z,927.31
2016-10-26T18:33:11.535Z,927.29
2016-10-26T18:34:21.874Z,927.25
2016-10-26T18:35:32.204Z,927.23
2016-10-26T18:36:42.566Z,927.22
2016-10-26T18:37:52.897Z,927.21
2016-10-26T18:39:17.797Z,927.18
2016-10-26T18:40:28.126Z,927.25
2016-10-26T18:41:38.460Z,927.25
2016-10-26T18:43:17.928Z,927.21
2016-10-26T18:44:28.259Z,927.23
2016-10-26T18:45:38.587Z,927.21
2016-10-26T18:46:48.928Z,927.2
2016-10-26T18:47:59.271Z,927.22
2016-10-26T18:49:09.610Z,927.14
2016-10-26T18:50:20.041Z,927.19
2016-10-26T18:51:44.939Z,927.15
2016-10-26T18:52:55.267Z,927.12
2016-10-26T18:54:20.165Z,927.1
2016-10-26T18:55:30.502Z,927.08
2016-10-26T18:56:40.834Z,927.07
2016-10-26T18:57:51.165Z,927.08
2016-10-26T18:59:01.495Z,927.05
2016-10-26T19:00:11.827Z,927.07
2016-10-26T19:01:36.828Z,927.03
2016-10-26T19:02:47.635Z,927.02
2016-10-26T19:03:57.973Z,927
2016-10-26T19:06:33.197Z,926.91
2016-10-26T19:07:43.529Z,926.95
2016-10-26T19:08:53.863Z,926.95
2016-10-26T19:10:04.199Z,926.9
2016-10-26T19:11:14.558Z,926.91
2016-10-26T19:12:24.986Z,926.93
2016-10-26T19:13:35.314Z,926.89
2016-10-26T19:14:45.654Z,926.92
2016-10-26T19:15:56.004Z,926.87
2016-10-26T19:17:06.333Z,926.88
2016-10-26T19:18:16.686Z,926.92
2016-10-26T19:19:27.015Z,926.89
2016-10-26T19:20:37.345Z,926.96
2016-10-26T19:21:47.674Z,927.01
2016-10-26T19:22:58.012Z,927.02
2016-10-26T19:24:08.457Z,926.99
2016-10-26T19:25:18.787Z,926.98
2016-10-26T19:26:29.157Z,926.98
2016-10-26T19:27:54.089Z,926.98
2016-10-26T19:29:04.422Z,926.92
2016-10-26T19:30:14.755Z,926.94
2016-10-26T19:31:25.117Z,926.94
2016-10-26T19:34:00.349Z,926.95
2016-10-26T19:35:10.781Z,927
2016-10-26T19:36:21.117Z,927.02
2016-10-26T19:37:31.448Z,927.04
2016-10-26T19:38:41.779Z,927.01
2016-10-26T19:39:52.111Z,927.03
2016-10-26T19:41:02.544Z,927.05
2016-10-26T19:42:12.886Z,927.02
2016-10-26T19:43:23.695Z,927.05
2016-10-26T19:44:34.023Z,927.05
2016-10-26T19:45:44.355Z,927.05
2016-10-26T19:46:54.788Z,927.05
2016-10-26T19:48:05.635Z,927.02
2016-10-26T19:49:15.973Z,927.02
2016-10-26T19:50:26.356Z,927.06
2016-10-26T19:51:36.686Z,927.05
2016-10-26T19:52:47.047Z,927.13
2016-10-26T19:53:57.375Z,927.07
2016-10-26T19:55:07.711Z,927.07
2016-10-26T19:56:18.044Z,927.04
2016-10-26T19:57:28.412Z,926.97
2016-10-26T19:58:38.742Z,927
2016-10-26T19:59:49.071Z,926.97
2016-10-26T20:00:59.484Z,926.97
2016-10-26T20:02:09.814Z,927
2016-10-26T20:03:20.147Z,926.97
2016-10-26T20:04:45.047Z,927.03
2016-10-26T20:05:55.375Z,927.01
2016-10-26T20:07:05.710Z,926.99
2016-10-26T20:08:16.045Z,926.99
2016-10-26T20:09:26.479Z,926.99
2016-10-26T20:10:36.811Z,926.96
2016-10-26T20:11:47.144Z,926.99
2016-10-26T20:12:57.474Z,927.02
2016-10-26T20:14:22.370Z,926.98
2016-10-26T20:15:32.727Z,926.98
2016-10-26T20:16:43.057Z,926.98
2016-10-26T20:17:53.421Z,927
2016-10-26T20:19:03.754Z,926.98
2016-10-26T20:20:14.559Z,926.98
2016-10-26T20:21:24.906Z,926.97
2016-10-26T20:22:35.235Z,926.99
2016-10-26T20:23:45.565Z,927.05
2016-10-26T20:24:55.895Z,927.05
2016-10-26T20:26:06.232Z,927.06
2016-10-26T20:27:16.566Z,927.13
2016-10-26T20:28:26.892Z,927.14
2016-10-26T20:29:37.217Z,927.14
2016-10-26T20:30:47.542Z,927.12
2016-10-26T20:31:57.971Z,927.11
2016-10-26T20:33:08.298Z,927.08
2016-10-26T20:34:18.631Z,927.15
2016-10-26T20:35:29.379Z,927.18
2016-10-26T20:36:39.710Z,927.24
2016-10-26T20:37:50.036Z,927.28
2016-10-26T20:39:00.397Z,927.32
2016-10-26T20:40:10.732Z,927.32
2016-10-26T20:41:21.063Z,927.35
2016-10-26T20:42:31.391Z,927.4
2016-10-26T20:43:41.718Z,927.4
2016-10-26T20:44:52.045Z,927.4
2016-10-26T20:46:02.373Z,927.46
2016-10-26T20:47:12.705Z,927.49
2016-10-26T20:48:23.028Z,927.47
2016-10-26T20:49:33.463Z,927.5
2016-10-26T20:50:43.791Z,927.49
2016-10-26T20:51:54.117Z,927.49
2016-10-26T20:53:04.455Z,927.52
2016-10-26T20:54:29.348Z,927.5
2016-10-26T20:55:39.781Z,927.55
2016-10-26T20:56:50.578Z,927.55
2016-10-26T20:58:00.909Z,927.57
2016-10-26T20:59:11.243Z,927.52
2016-10-26T21:00:21.682Z,927.53
2016-10-26T21:01:32.015Z,927.53
2016-10-26T21:02:42.343Z,927.55
2016-10-26T21:03:52.678Z,927.59
2016-10-26T21:05:03.008Z,927.56
2016-10-26T21:06:13.351Z,927.64
2016-10-26T21:07:23.674Z,927.7
2016-10-26T21:08:34.001Z,927.77
2016-10-26T21:11:09.223Z,927.84
2016-10-26T21:12:34.117Z,927.9
2016-10-26T21:13:44.445Z,927.86
2016-10-26T21:14:54.776Z,927.9
2016-10-26T21:16:05.113Z,928
2016-10-26T21:17:15.730Z,928
2016-10-26T21:18:40.626Z,927.99
2016-10-26T21:20:05.523Z,928.02
2016-10-26T21:21:15.858Z,927.98
2016-10-26T21:22:26.285Z,928.02
2016-10-26T21:23:36.612Z,928.07
2016-10-26T21:24:46.938Z,928.1
2016-10-26T21:25:57.263Z,928.16
2016-10-26T21:27:07.610Z,928.17
2016-10-26T21:28:18.032Z,928.22
2016-10-26T21:29:28.451Z,928.22
2016-10-26T21:30:38.871Z,928.26
2016-10-26T21:33:14.795Z,928.31
2016-10-26T21:34:25.243Z,928.27
2016-10-26T21:35:35.668Z,928.26
2016-10-26T21:36:46.086Z,928.22
2016-10-26T21:37:56.505Z,928.2
2016-10-26T21:39:07.022Z,928.18
2016-10-26T21:40:17.447Z,928.22
2016-10-26T21:43:07.384Z,928.21
2016-10-26T21:44:17.905Z,928.24
2016-10-26T21:45:28.323Z,928.22
2016-10-26T21:46:38.738Z,928.24
2016-10-26T21:47:49.154Z,928.25
2016-10-26T21:49:14.126Z,928.22
2016-10-26T21:50:24.546Z,928.26
2016-10-26T21:51:49.514Z,928.32
2016-10-26T21:52:59.931Z,928.37
2016-10-26T21:54:10.351Z,928.43
2016-10-26T21:55:20.869Z,928.5
2016-10-26T21:56:31.285Z,928.53
2016-10-26T21:57:41.703Z,928.6
2016-10-26T21:58:52.122Z,928.61
2016-10-26T22:00:02.642Z,928.62
2016-10-26T22:01:27.608Z,928.63
2016-10-26T22:02:38.027Z,928.64
2016-10-26T22:03:48.482Z,928.61
2016-10-26T22:05:13.448Z,928.67
2016-10-26T22:06:38.423Z,928.71
2016-10-26T22:08:03.398Z,928.81
2016-10-26T22:09:13.842Z,928.81
2016-10-26T22:10:38.831Z,928.95
2016-10-26T22:11:49.230Z,928.97
2016-10-26T22:12:59.555Z,928.97
2016-10-26T22:14:24.452Z,929.07
2016-10-26T22:15:34.780Z,929.05
2016-10-26T22:16:45.224Z,929.07
2016-10-26T22:17:55.549Z,929.09
2016-10-26T22:19:20.442Z,929.07
2016-10-26T22:20:30.765Z,929.07
2016-10-26T22:21:41.093Z,929.06
2016-10-26T22:22:51.425Z,929.06
2016-10-26T22:24:01.749Z,929.07
2016-10-26T22:25:12.074Z,929.08
2016-10-26T22:26:22.501Z,929.09
2016-10-26T22:27:32.862Z,929.13
2016-10-26T22:28:57.791Z,929.15
2016-10-26T22:30:08.119Z,929.19
2016-10-26T22:31:18.458Z,929.15
2016-10-26T22:32:28.891Z,929.15
2016-10-26T22:33:39.215Z,929.13
2016-10-26T22:34:49.541Z,929.12
2016-10-26T22:35:59.874Z,929.1
2016-10-26T22:37:10.310Z,929.13
2016-10-26T22:38:20.636Z,929.17
2016-10-26T22:39:30.970Z,929.18
2016-10-26T22:40:55.864Z,929.18
2016-10-26T22:42:06.193Z,929.18
2016-10-26T22:43:16.624Z,929.15
2016-10-26T22:44:26.954Z,929.12
2016-10-26T22:45:37.280Z,929.17
2016-10-26T22:46:47.637Z,929.14
2016-10-26T22:47:58.063Z,929.16
2016-10-26T22:49:08.391Z,929.19
2016-10-26T22:50:18.721Z,929.21
2016-10-26T22:51:29.051Z,929.19
2016-10-26T22:52:39.376Z,929.17
2016-10-26T22:53:49.703Z,929.16
2016-10-26T22:55:14.594Z,929.08
2016-10-26T22:56:24.915Z,929.02
2016-10-26T22:57:35.241Z,928.98
2016-10-26T22:58:45.567Z,928.98
2016-10-26T22:59:55.890Z,928.96
2016-10-26T23:01:06.219Z,928.95
2016-10-26T23:02:16.575Z,928.91
2016-10-26T23:03:26.901Z,928.93
2016-10-26T23:04:37.224Z,928.89
2016-10-26T23:05:47.547Z,928.88
2016-10-26T23:06:57.875Z,928.94
2016-10-26T23:08:22.767Z,928.95
2016-10-26T23:10:57.996Z,928.97
2016-10-26T23:12:08.331Z,928.99
2016-10-26T23:13:18.659Z,929.01
2016-10-26T23:14:28.984Z,929.04
2016-10-26T23:15:39.887Z,929
2016-10-26T23:16:50.211Z,928.99
2016-10-26T23:18:00.536Z,928.94
2016-10-26T23:19:10.866Z,928.92
2016-10-26T23:20:21.201Z,928.92
2016-10-26T23:21:31.630Z,928.89
2016-10-26T23:22:41.959Z,928.93
2016-10-26T23:23:52.296Z,928.9
2016-10-26T23:25:02.624Z,928.88
2016-10-26T23:26:12.952Z,928.84
2016-10-26T23:27:23.280Z,928.78
2016-10-26T23:28:33.639Z,928.75
2016-10-26T23:29:43.967Z,928.81
2016-10-26T23:30:54.329Z,928.88
2016-10-26T23:32:04.661Z,929.01
2016-10-26T23:34:39.898Z,929.31
2016-10-26T23:35:50.221Z,929.35
2016-10-26T23:37:00.552Z,929.49
2016-10-26T23:38:10.914Z,929.62
2016-10-26T23:39:21.340Z,929.76
2016-10-26T23:40:31.669Z,929.85
2016-10-26T23:41:41.995Z,929.96
2016-10-26T23:42:52.357Z,930.24
2016-10-26T23:44:02.781Z,930.44
2016-10-26T23:45:13.109Z,930.45
2016-10-26T23:46:23.435Z,930.52
2016-10-26T23:47:33.773Z,930.52
2016-10-26T23:48:44.097Z,930.53
2016-10-26T23:49:54.429Z,930.36
2016-10-26T23:51:04.759Z,930.47
2016-10-26T23:52:29.654Z,930.67
2016-10-26T23:53:54.545Z,930.83
2016-10-26T23:55:04.981Z,930.75
2016-10-26T23:56:15.428Z,930.77
2016-10-26T23:57:25.879Z,930.67
2016-10-26T23:58:36.325Z,930.62
2016-10-26T23:59:46.769Z,930.47
